sensor_id;sensor_type;location;lat;lon;timestamp;temperature;humidity
66827;DHT22;53727;45.242;19.796;2022-07-21T00:00:54;615.20;1868.80
66827;DHT22;53727;45.242;19.796;2022-07-21T00:03:20;615.10;1843.20
66827;DHT22;53727;45.242;19.796;2022-07-21T00:05:45;615.10;1843.20
66827;DHT22;53727;45.242;19.796;2022-07-21T00:08:11;615.10;1817.60
66827;DHT22;53727;45.242;19.796;2022-07-21T00:10:38;615.10;1792.00
66827;DHT22;53727;45.242;19.796;2022-07-21T00:13:04;615.10;1817.60
66827;DHT22;53727;45.242;19.796;2022-07-21T00:15:31;615.10;1843.20
66827;DHT22;53727;45.242;19.796;2022-07-21T00:17:57;615.00;1843.20
66827;DHT22;53727;45.242;19.796;2022-07-21T00:20:23;615.00;1817.60
66827;DHT22;53727;45.242;19.796;2022-07-21T00:22:49;615.00;1792.00
66827;DHT22;53727;45.242;19.796;2022-07-21T00:25:15;615.00;1766.40
66827;DHT22;53727;45.242;19.796;2022-07-21T00:27:41;615.00;1766.40
66827;DHT22;53727;45.242;19.796;2022-07-21T00:30:08;615.00;1792.00
66827;DHT22;53727;45.242;19.796;2022-07-21T00:32:34;615.10;1740.80
66827;DHT22;53727;45.242;19.796;2022-07-21T00:35:00;615.10;1740.80
66827;DHT22;53727;45.242;19.796;2022-07-21T00:37:26;615.00;1740.80
66827;DHT22;53727;45.242;19.796;2022-07-21T00:39:53;615.00;1740.80
66827;DHT22;53727;45.242;19.796;2022-07-21T00:42:20;615.00;1715.20
66827;DHT22;53727;45.242;19.796;2022-07-21T00:44:46;615.00;1740.80
66827;DHT22;53727;45.242;19.796;2022-07-21T00:47:12;615.00;1715.20
66827;DHT22;53727;45.242;19.796;2022-07-21T00:49:38;615.00;1689.60
66827;DHT22;53727;45.242;19.796;2022-07-21T00:52:04;615.00;1740.80
66827;DHT22;53727;45.242;19.796;2022-07-21T00:54:30;615.00;1766.40
66827;DHT22;53727;45.242;19.796;2022-07-21T00:56:55;615.00;1792.00
66827;DHT22;53727;45.242;19.796;2022-07-21T00:59:21;615.00;1817.60
66827;DHT22;53727;45.242;19.796;2022-07-21T01:01:47;614.90;1792.00
66827;DHT22;53727;45.242;19.796;2022-07-21T01:04:13;614.90;1792.00
66827;DHT22;53727;45.242;19.796;2022-07-21T01:06:39;614.90;1792.00
66827;DHT22;53727;45.242;19.796;2022-07-21T01:09:05;614.80;1792.00
66827;DHT22;53727;45.242;19.796;2022-07-21T01:11:31;614.80;1817.60
66827;DHT22;53727;45.242;19.796;2022-07-21T01:13:57;614.80;1817.60
66827;DHT22;53727;45.242;19.796;2022-07-21T01:16:23;614.80;1817.60
66827;DHT22;53727;45.242;19.796;2022-07-21T01:18:50;614.80;1817.60
66827;DHT22;53727;45.242;19.796;2022-07-21T01:21:34;614.80;1817.60
66827;DHT22;53727;45.242;19.796;2022-07-21T01:24:00;614.70;1817.60
66827;DHT22;53727;45.242;19.796;2022-07-21T01:26:27;614.70;1868.80
66827;DHT22;53727;45.242;19.796;2022-07-21T01:28:54;614.70;1868.80
66827;DHT22;53727;45.242;19.796;2022-07-21T01:31:20;614.70;1894.40
66827;DHT22;53727;45.242;19.796;2022-07-21T01:33:46;614.60;1920.00
66827;DHT22;53727;45.242;19.796;2022-07-21T01:36:11;614.60;1945.60
66827;DHT22;53727;45.242;19.796;2022-07-21T01:38:37;614.50;1945.60
66827;DHT22;53727;45.242;19.796;2022-07-21T01:41:21;614.50;1945.60
66827;DHT22;53727;45.242;19.796;2022-07-21T01:44:00;614.50;1971.20
66827;DHT22;53727;45.242;19.796;2022-07-21T01:46:26;614.50;1971.20
66827;DHT22;53727;45.242;19.796;2022-07-21T01:48:52;614.40;1996.80
66827;DHT22;53727;45.242;19.796;2022-07-21T01:51:18;614.40;2022.40
66827;DHT22;53727;45.242;19.796;2022-07-21T01:53:44;614.40;2022.40
66827;DHT22;53727;45.242;19.796;2022-07-21T01:56:09;589.70;2022.40
66827;DHT22;53727;45.242;19.796;2022-07-21T01:58:36;589.70;2048.00
66827;DHT22;53727;45.242;19.796;2022-07-21T02:01:02;589.70;2048.00
66827;DHT22;53727;45.242;19.796;2022-07-21T02:03:28;589.70;2048.00
66827;DHT22;53727;45.242;19.796;2022-07-21T02:06:03;589.60;2073.60
66827;DHT22;53727;45.242;19.796;2022-07-21T02:08:30;589.60;2073.60
66827;DHT22;53727;45.242;19.796;2022-07-21T02:10:56;589.60;2048.00
66827;DHT22;53727;45.242;19.796;2022-07-21T02:13:22;589.50;2073.60
66827;DHT22;53727;45.242;19.796;2022-07-21T02:15:47;589.50;2073.60
66827;DHT22;53727;45.242;19.796;2022-07-21T02:18:13;589.50;2073.60
66827;DHT22;53727;45.242;19.796;2022-07-21T02:20:39;589.40;2099.20
66827;DHT22;53727;45.242;19.796;2022-07-21T02:23:05;589.30;2099.20
66827;DHT22;53727;45.242;19.796;2022-07-21T02:25:30;589.30;2099.20
66827;DHT22;53727;45.242;19.796;2022-07-21T02:27:56;589.20;2124.80
66827;DHT22;53727;45.242;19.796;2022-07-21T02:32:48;589.40;2099.20
66827;DHT22;53727;45.242;19.796;2022-07-21T02:35:14;589.30;2099.20
66827;DHT22;53727;45.242;19.796;2022-07-21T02:37:39;589.30;2150.40
66827;DHT22;53727;45.242;19.796;2022-07-21T02:40:06;589.30;2099.20
66827;DHT22;53727;45.242;19.796;2022-07-21T02:42:32;589.40;2099.20
66827;DHT22;53727;45.242;19.796;2022-07-21T02:44:58;589.40;2099.20
66827;DHT22;53727;45.242;19.796;2022-07-21T02:47:23;589.40;2073.60
66827;DHT22;53727;45.242;19.796;2022-07-21T02:49:49;589.40;2073.60
66827;DHT22;53727;45.242;19.796;2022-07-21T02:52:15;589.40;2099.20
66827;DHT22;53727;45.242;19.796;2022-07-21T02:54:40;589.30;2124.80
66827;DHT22;53727;45.242;19.796;2022-07-21T02:57:06;589.30;2150.40
66827;DHT22;53727;45.242;19.796;2022-07-21T02:59:32;589.30;2150.40
66827;DHT22;53727;45.242;19.796;2022-07-21T03:01:57;589.30;2201.60
66827;DHT22;53727;45.242;19.796;2022-07-21T03:04:23;589.30;2227.20
66827;DHT22;53727;45.242;19.796;2022-07-21T03:06:49;589.30;2304.00
66827;DHT22;53727;45.242;19.796;2022-07-21T03:09:15;589.40;2278.40
66827;DHT22;53727;45.242;19.796;2022-07-21T03:11:40;589.40;2329.60
66827;DHT22;53727;45.242;19.796;2022-07-21T03:14:06;589.20;2355.20
66827;DHT22;53727;45.242;19.796;2022-07-21T03:16:32;589.30;2355.20
66827;DHT22;53727;45.242;19.796;2022-07-21T03:18:58;589.20;2329.60
66827;DHT22;53727;45.242;19.796;2022-07-21T03:21:23;589.20;2355.20
66827;DHT22;53727;45.242;19.796;2022-07-21T03:23:50;589.20;2380.80
66827;DHT22;53727;45.242;19.796;2022-07-21T03:26:16;589.20;2355.20
66827;DHT22;53727;45.242;19.796;2022-07-21T03:28:43;589.20;2329.60
66827;DHT22;53727;45.242;19.796;2022-07-21T03:31:09;589.20;2329.60
66827;DHT22;53727;45.242;19.796;2022-07-21T03:33:35;589.20;2329.60
66827;DHT22;53727;45.242;19.796;2022-07-21T03:36:01;589.30;2278.40
66827;DHT22;53727;45.242;19.796;2022-07-21T03:38:27;589.10;2278.40
66827;DHT22;53727;45.242;19.796;2022-07-21T03:40:53;589.20;2278.40
66827;DHT22;53727;45.242;19.796;2022-07-21T03:43:18;589.20;2252.80
66827;DHT22;53727;45.242;19.796;2022-07-21T03:45:44;589.20;2201.60
66827;DHT22;53727;45.242;19.796;2022-07-21T03:48:11;589.20;2252.80
66827;DHT22;53727;45.242;19.796;2022-07-21T03:50:38;589.20;2201.60
66827;DHT22;53727;45.242;19.796;2022-07-21T03:53:05;589.30;2227.20
66827;DHT22;53727;45.242;19.796;2022-07-21T03:55:31;589.30;2176.00
66827;DHT22;53727;45.242;19.796;2022-07-21T03:57:59;589.40;2201.60
66827;DHT22;53727;45.242;19.796;2022-07-21T04:00:39;589.40;2201.60
66827;DHT22;53727;45.242;19.796;2022-07-21T04:03:06;589.50;2176.00
66827;DHT22;53727;45.242;19.796;2022-07-21T04:05:33;589.60;2124.80
66827;DHT22;53727;45.242;19.796;2022-07-21T04:07:59;589.50;2099.20
66827;DHT22;53727;45.242;19.796;2022-07-21T04:10:28;589.70;2048.00
66827;DHT22;53727;45.242;19.796;2022-07-21T04:12:56;589.60;2022.40
66827;DHT22;53727;45.242;19.796;2022-07-21T04:15:22;614.40;2048.00
66827;DHT22;53727;45.242;19.796;2022-07-21T04:17:48;614.40;2022.40
66827;DHT22;53727;45.242;19.796;2022-07-21T04:20:14;614.50;2048.00
66827;DHT22;53727;45.242;19.796;2022-07-21T04:22:42;614.50;2048.00
66827;DHT22;53727;45.242;19.796;2022-07-21T04:25:08;614.50;2048.00
66827;DHT22;53727;45.242;19.796;2022-07-21T04:27:35;614.40;2022.40
66827;DHT22;53727;45.242;19.796;2022-07-21T04:30:02;614.50;2048.00
66827;DHT22;53727;45.242;19.796;2022-07-21T04:32:28;614.50;2048.00
66827;DHT22;53727;45.242;19.796;2022-07-21T04:34:53;614.80;2022.40
66827;DHT22;53727;45.242;19.796;2022-07-21T04:37:19;614.90;2022.40
66827;DHT22;53727;45.242;19.796;2022-07-21T04:39:45;615.30;1996.80
66827;DHT22;53727;45.242;19.796;2022-07-21T04:42:12;615.30;1996.80
66827;DHT22;53727;45.242;19.796;2022-07-21T04:44:37;640.30;1945.60
66827;DHT22;53727;45.242;19.796;2022-07-21T04:47:03;640.20;1945.60
66827;DHT22;53727;45.242;19.796;2022-07-21T04:49:29;640.30;1894.40
66827;DHT22;53727;45.242;19.796;2022-07-21T04:51:54;640.70;1868.80
66827;DHT22;53727;45.242;19.796;2022-07-21T04:54:20;640.60;1868.80
66827;DHT22;53727;45.242;19.796;2022-07-21T04:56:46;640.70;1868.80
66827;DHT22;53727;45.242;19.796;2022-07-21T04:59:11;640.80;1843.20
66827;DHT22;53727;45.242;19.796;2022-07-21T05:01:37;665.60;1792.00
66827;DHT22;53727;45.242;19.796;2022-07-21T05:04:05;665.70;1817.60
66827;DHT22;53727;45.242;19.796;2022-07-21T05:06:31;665.80;1817.60
66827;DHT22;53727;45.242;19.796;2022-07-21T05:08:57;665.80;1792.00
66827;DHT22;53727;45.242;19.796;2022-07-21T05:11:23;665.60;1817.60
66827;DHT22;53727;45.242;19.796;2022-07-21T05:13:49;640.90;1792.00
66827;DHT22;53727;45.242;19.796;2022-07-21T05:16:15;640.90;1817.60
66827;DHT22;53727;45.242;19.796;2022-07-21T05:18:41;665.80;1843.20
66827;DHT22;53727;45.242;19.796;2022-07-21T05:21:06;666.10;1817.60
66827;DHT22;53727;45.242;19.796;2022-07-21T05:23:32;666.20;1792.00
66827;DHT22;53727;45.242;19.796;2022-07-21T05:25:58;666.40;1766.40
66827;DHT22;53727;45.242;19.796;2022-07-21T05:28:27;691.20;1740.80
66827;DHT22;53727;45.242;19.796;2022-07-21T05:30:54;691.30;1740.80
66827;DHT22;53727;45.242;19.796;2022-07-21T05:33:19;691.40;1689.60
66827;DHT22;53727;45.242;19.796;2022-07-21T05:35:46;691.40;1638.40
66827;DHT22;53727;45.242;19.796;2022-07-21T05:38:12;691.50;1638.40
66827;DHT22;53727;45.242;19.796;2022-07-21T05:40:38;691.80;1664.00
66827;DHT22;53727;45.242;19.796;2022-07-21T05:43:04;692.10;1638.40
66827;DHT22;53727;45.242;19.796;2022-07-21T05:47:55;717.10;1587.20
66827;DHT22;53727;45.242;19.796;2022-07-21T05:50:21;717.00;1587.20
66827;DHT22;53727;45.242;19.796;2022-07-21T05:52:47;716.90;1587.20
66827;DHT22;53727;45.242;19.796;2022-07-21T05:55:12;717.00;1536.00
66827;DHT22;53727;45.242;19.796;2022-07-21T05:57:39;717.30;1536.00
66827;DHT22;53727;45.242;19.796;2022-07-21T06:00:05;717.30;1484.80
66827;DHT22;53727;45.242;19.796;2022-07-21T06:02:31;717.50;1510.40
66827;DHT22;53727;45.242;19.796;2022-07-21T06:04:58;717.60;1408.00
66827;DHT22;53727;45.242;19.796;2022-07-21T06:07:24;717.60;1459.20
66827;DHT22;53727;45.242;19.796;2022-07-21T06:09:50;717.60;1433.60
66827;DHT22;53727;45.242;19.796;2022-07-21T06:12:16;717.70;1433.60
66827;DHT22;53727;45.242;19.796;2022-07-21T06:14:42;742.50;1433.60
66827;DHT22;53727;45.242;19.796;2022-07-21T06:17:08;742.60;1331.20
66827;DHT22;53727;45.242;19.796;2022-07-21T06:19:33;742.70;1356.80
66827;DHT22;53727;45.242;19.796;2022-07-21T06:21:59;742.70;1356.80
66827;DHT22;53727;45.242;19.796;2022-07-21T06:24:25;742.80;1382.40
66827;DHT22;53727;45.242;19.796;2022-07-21T06:26:52;742.90;1331.20
66827;DHT22;53727;45.242;19.796;2022-07-21T06:29:24;743.00;1331.20
66827;DHT22;53727;45.242;19.796;2022-07-21T06:31:50;743.00;1331.20
66827;DHT22;53727;45.242;19.796;2022-07-21T06:34:16;743.20;1305.60
66827;DHT22;53727;45.242;19.796;2022-07-21T06:36:42;743.30;1280.00
66827;DHT22;53727;45.242;19.796;2022-07-21T06:39:08;743.30;1305.60
66827;DHT22;53727;45.242;19.796;2022-07-21T06:41:38;768.20;1305.60
66827;DHT22;53727;45.242;19.796;2022-07-21T06:44:04;768.10;1331.20
66827;DHT22;53727;45.242;19.796;2022-07-21T06:46:31;768.10;1305.60
66827;DHT22;53727;45.242;19.796;2022-07-21T06:48:57;768.30;1280.00
66827;DHT22;53727;45.242;19.796;2022-07-21T06:51:23;768.20;1254.40
66827;DHT22;53727;45.242;19.796;2022-07-21T06:53:49;768.10;1280.00
66827;DHT22;53727;45.242;19.796;2022-07-21T06:56:16;768.10;1280.00
66827;DHT22;53727;45.242;19.796;2022-07-21T06:58:42;768.30;1280.00
66827;DHT22;53727;45.242;19.796;2022-07-21T07:01:08;768.40;1254.40
66827;DHT22;53727;45.242;19.796;2022-07-21T07:03:33;768.50;1254.40
66827;DHT22;53727;45.242;19.796;2022-07-21T07:05:59;768.60;1254.40
66827;DHT22;53727;45.242;19.796;2022-07-21T07:08:25;768.70;1254.40
66827;DHT22;53727;45.242;19.796;2022-07-21T07:10:51;768.60;1280.00
66827;DHT22;53727;45.242;19.796;2022-07-21T07:13:16;768.80;1254.40
66827;DHT22;53727;45.242;19.796;2022-07-21T07:15:43;768.90;1254.40
66827;DHT22;53727;45.242;19.796;2022-07-21T07:18:09;793.70;1280.00
66827;DHT22;53727;45.242;19.796;2022-07-21T07:20:36;793.90;1280.00
66827;DHT22;53727;45.242;19.796;2022-07-21T07:23:01;793.90;1254.40
66827;DHT22;53727;45.242;19.796;2022-07-21T07:25:27;794.00;1254.40
66827;DHT22;53727;45.242;19.796;2022-07-21T07:27:53;794.20;1305.60
66827;DHT22;53727;45.242;19.796;2022-07-21T07:30:20;794.20;1228.80
66827;DHT22;53727;45.242;19.796;2022-07-21T07:32:46;794.30;1254.40
66827;DHT22;53727;45.242;19.796;2022-07-21T07:35:15;794.30;1254.40
66827;DHT22;53727;45.242;19.796;2022-07-21T07:37:43;794.50;1228.80
66827;DHT22;53727;45.242;19.796;2022-07-21T07:40:12;794.50;1228.80
66827;DHT22;53727;45.242;19.796;2022-07-21T07:42:38;819.20;1254.40
66827;DHT22;53727;45.242;19.796;2022-07-21T07:45:06;794.50;1254.40
66827;DHT22;53727;45.242;19.796;2022-07-21T07:47:32;819.20;1280.00
66827;DHT22;53727;45.242;19.796;2022-07-21T07:49:58;819.30;1228.80
66827;DHT22;53727;45.242;19.796;2022-07-21T07:52:24;819.20;1203.20
66827;DHT22;53727;45.242;19.796;2022-07-21T07:54:49;794.40;1177.60
66827;DHT22;53727;45.242;19.796;2022-07-21T07:57:15;794.50;1177.60
66827;DHT22;53727;45.242;19.796;2022-07-21T07:59:41;819.20;1203.20
66827;DHT22;53727;45.242;19.796;2022-07-21T08:02:07;819.20;1228.80
66827;DHT22;53727;45.242;19.796;2022-07-21T08:04:32;819.40;1203.20
66827;DHT22;53727;45.242;19.796;2022-07-21T08:06:58;819.50;1177.60
66827;DHT22;53727;45.242;19.796;2022-07-21T08:09:24;819.50;1177.60
66827;DHT22;53727;45.242;19.796;2022-07-21T08:11:50;819.50;1177.60
66827;DHT22;53727;45.242;19.796;2022-07-21T08:14:17;819.60;1177.60
66827;DHT22;53727;45.242;19.796;2022-07-21T08:16:42;819.60;1177.60
66827;DHT22;53727;45.242;19.796;2022-07-21T08:19:08;819.80;1177.60
66827;DHT22;53727;45.242;19.796;2022-07-21T08:21:35;819.80;1177.60
66827;DHT22;53727;45.242;19.796;2022-07-21T08:24:01;819.90;1152.00
66827;DHT22;53727;45.242;19.796;2022-07-21T08:26:27;819.90;1152.00
66827;DHT22;53727;45.242;19.796;2022-07-21T08:28:54;819.80;1177.60
66827;DHT22;53727;45.242;19.796;2022-07-21T08:31:21;819.90;1177.60
66827;DHT22;53727;45.242;19.796;2022-07-21T08:33:47;820.00;1177.60
66827;DHT22;53727;45.242;19.796;2022-07-21T08:36:12;820.10;1152.00
66827;DHT22;53727;45.242;19.796;2022-07-21T08:38:38;820.10;1152.00
66827;DHT22;53727;45.242;19.796;2022-07-21T08:41:04;844.80;1177.60
66827;DHT22;53727;45.242;19.796;2022-07-21T08:43:30;844.80;1177.60
66827;DHT22;53727;45.242;19.796;2022-07-21T08:45:56;844.90;1177.60
66827;DHT22;53727;45.242;19.796;2022-07-21T08:48:24;844.90;1177.60
66827;DHT22;53727;45.242;19.796;2022-07-21T08:50:50;845.00;1126.40
66827;DHT22;53727;45.242;19.796;2022-07-21T08:53:16;845.10;1152.00
66827;DHT22;53727;45.242;19.796;2022-07-21T08:55:42;845.10;1126.40
66827;DHT22;53727;45.242;19.796;2022-07-21T08:58:09;845.30;1126.40
66827;DHT22;53727;45.242;19.796;2022-07-21T09:00:36;845.40;1126.40
66827;DHT22;53727;45.242;19.796;2022-07-21T09:06:28;845.40;1126.40
66827;DHT22;53727;45.242;19.796;2022-07-21T09:08:51;845.50;1100.80
66827;DHT22;53727;45.242;19.796;2022-07-21T09:14:11;845.60;1100.80
66827;DHT22;53727;45.242;19.796;2022-07-21T09:16:44;870.40;1126.40
66827;DHT22;53727;45.242;19.796;2022-07-21T09:19:18;870.50;1100.80
66827;DHT22;53727;45.242;19.796;2022-07-21T09:21:44;870.50;1075.20
66827;DHT22;53727;45.242;19.796;2022-07-21T09:24:20;870.40;1075.20
66827;DHT22;53727;45.242;19.796;2022-07-21T09:27:09;845.70;1100.80
66827;DHT22;53727;45.242;19.796;2022-07-21T09:32:16;870.50;1075.20
66827;DHT22;53727;45.242;19.796;2022-07-21T09:34:42;870.70;1075.20
66827;DHT22;53727;45.242;19.796;2022-07-21T09:37:08;870.50;1049.60
66827;DHT22;53727;45.242;19.796;2022-07-21T09:39:47;870.70;1024.00
66827;DHT22;53727;45.242;19.796;2022-07-21T09:42:32;870.70;1049.60
66827;DHT22;53727;45.242;19.796;2022-07-21T09:45:25;870.90;1024.00
66827;DHT22;53727;45.242;19.796;2022-07-21T09:47:50;870.90;1024.00
66827;DHT22;53727;45.242;19.796;2022-07-21T09:50:17;870.80;1049.60
66827;DHT22;53727;45.242;19.796;2022-07-21T09:52:44;870.90;1024.00
66827;DHT22;53727;45.242;19.796;2022-07-21T09:55:13;871.00;1024.00
66827;DHT22;53727;45.242;19.796;2022-07-21T09:57:39;871.00;998.40
66827;DHT22;53727;45.242;19.796;2022-07-21T10:00:08;871.10;972.80
66827;DHT22;53727;45.242;19.796;2022-07-21T10:02:34;871.10;998.40
66827;DHT22;53727;45.242;19.796;2022-07-21T10:05:14;871.10;998.40
66827;DHT22;53727;45.242;19.796;2022-07-21T10:07:44;871.10;998.40
66827;DHT22;53727;45.242;19.796;2022-07-21T10:10:11;871.20;972.80
66827;DHT22;53727;45.242;19.796;2022-07-21T10:12:38;871.30;972.80
66827;DHT22;53727;45.242;19.796;2022-07-21T10:15:05;871.30;972.80
66827;DHT22;53727;45.242;19.796;2022-07-21T10:17:31;896.10;998.40
66827;DHT22;53727;45.242;19.796;2022-07-21T10:25:18;896.20;921.60
66827;DHT22;53727;45.242;19.796;2022-07-21T10:30:38;896.20;896.00
66827;DHT22;53727;45.242;19.796;2022-07-21T10:33:04;896.20;896.00
66827;DHT22;53727;45.242;19.796;2022-07-21T10:35:31;896.30;896.00
66827;DHT22;53727;45.242;19.796;2022-07-21T10:38:00;896.40;896.00
66827;DHT22;53727;45.242;19.796;2022-07-21T10:45:34;921.60;921.60
66827;DHT22;53727;45.242;19.796;2022-07-21T10:48:02;896.90;896.00
66827;DHT22;53727;45.242;19.796;2022-07-21T10:50:37;896.80;896.00
66827;DHT22;53727;45.242;19.796;2022-07-21T10:53:14;896.80;896.00
66827;DHT22;53727;45.242;19.796;2022-07-21T10:55:54;896.90;896.00
66827;DHT22;53727;45.242;19.796;2022-07-21T11:03:30;921.70;896.00
66827;DHT22;53727;45.242;19.796;2022-07-21T11:08:45;921.70;896.00
66827;DHT22;53727;45.242;19.796;2022-07-21T11:21:53;921.80;896.00
66827;DHT22;53727;45.242;19.796;2022-07-21T11:24:20;922.40;921.60
66827;DHT22;53727;45.242;19.796;2022-07-21T11:27:04;922.30;896.00
66827;DHT22;53727;45.242;19.796;2022-07-21T11:31:58;947.30;896.00
66827;DHT22;53727;45.242;19.796;2022-07-21T11:34:52;947.30;896.00
66827;DHT22;53727;45.242;19.796;2022-07-21T11:37:33;947.30;870.40
66827;DHT22;53727;45.242;19.796;2022-07-21T11:40:00;947.20;870.40
66827;DHT22;53727;45.242;19.796;2022-07-21T11:42:27;947.70;870.40
66827;DHT22;53727;45.242;19.796;2022-07-21T11:44:53;947.60;896.00
66827;DHT22;53727;45.242;19.796;2022-07-21T11:47:20;947.80;870.40
66827;DHT22;53727;45.242;19.796;2022-07-21T11:49:56;947.50;896.00
66827;DHT22;53727;45.242;19.796;2022-07-21T11:52:28;947.40;896.00
66827;DHT22;53727;45.242;19.796;2022-07-21T11:54:56;947.40;896.00
66827;DHT22;53727;45.242;19.796;2022-07-21T11:57:23;947.40;870.40
66827;DHT22;53727;45.242;19.796;2022-07-21T11:59:50;947.30;896.00
66827;DHT22;53727;45.242;19.796;2022-07-21T12:02:18;947.40;896.00
66827;DHT22;53727;45.242;19.796;2022-07-21T12:04:49;947.50;896.00
66827;DHT22;53727;45.242;19.796;2022-07-21T12:09:59;947.30;896.00
66827;DHT22;53727;45.242;19.796;2022-07-21T12:12:35;947.60;896.00
66827;DHT22;53727;45.242;19.796;2022-07-21T12:15:14;947.70;896.00
66827;DHT22;53727;45.242;19.796;2022-07-21T12:17:45;947.70;896.00
66827;DHT22;53727;45.242;19.796;2022-07-21T12:20:13;947.60;870.40
66827;DHT22;53727;45.242;19.796;2022-07-21T12:22:44;948.00;870.40
66827;DHT22;53727;45.242;19.796;2022-07-21T12:25:13;948.10;870.40
66827;DHT22;53727;45.242;19.796;2022-07-21T12:27:41;972.80;896.00
66827;DHT22;53727;45.242;19.796;2022-07-21T12:30:09;948.00;896.00
66827;DHT22;53727;45.242;19.796;2022-07-21T12:32:40;972.80;921.60
66827;DHT22;53727;45.242;19.796;2022-07-21T13:02:51;973.70;870.40
66827;DHT22;53727;45.242;19.796;2022-07-21T13:05:17;973.50;870.40
66827;DHT22;53727;45.242;19.796;2022-07-21T13:07:43;998.40;896.00
66827;DHT22;53727;45.242;19.796;2022-07-21T13:10:09;998.80;844.80
66827;DHT22;53727;45.242;19.796;2022-07-21T13:12:34;998.70;844.80
66827;DHT22;53727;45.242;19.796;2022-07-21T13:15:00;998.70;844.80
66827;DHT22;53727;45.242;19.796;2022-07-21T13:17:26;998.50;844.80
66827;DHT22;53727;45.242;19.796;2022-07-21T13:19:52;973.70;844.80
66827;DHT22;53727;45.242;19.796;2022-07-21T13:22:17;973.40;844.80
66827;DHT22;53727;45.242;19.796;2022-07-21T13:24:43;973.60;844.80
66827;DHT22;53727;45.242;19.796;2022-07-21T13:27:09;998.50;844.80
66827;DHT22;53727;45.242;19.796;2022-07-21T13:29:34;998.40;844.80
66827;DHT22;53727;45.242;19.796;2022-07-21T13:32:02;973.50;844.80
66827;DHT22;53727;45.242;19.796;2022-07-21T13:34:28;973.40;844.80
66827;DHT22;53727;45.242;19.796;2022-07-21T13:36:54;973.40;844.80
66827;DHT22;53727;45.242;19.796;2022-07-21T13:39:19;973.50;844.80
66827;DHT22;53727;45.242;19.796;2022-07-21T13:41:48;998.50;921.60
66827;DHT22;53727;45.242;19.796;2022-07-21T13:44:13;998.80;870.40
66827;DHT22;53727;45.242;19.796;2022-07-21T13:46:39;998.80;844.80
66827;DHT22;53727;45.242;19.796;2022-07-21T14:42:44;999.20;844.80
66827;DHT22;53727;45.242;19.796;2022-07-21T14:45:12;999.00;819.20
66827;DHT22;53727;45.242;19.796;2022-07-21T14:47:38;998.80;844.80
66827;DHT22;53727;45.242;19.796;2022-07-21T14:50:05;998.60;844.80
66827;DHT22;53727;45.242;19.796;2022-07-21T14:52:31;998.60;819.20
66827;DHT22;53727;45.242;19.796;2022-07-21T14:54:56;998.50;844.80
66827;DHT22;53727;45.242;19.796;2022-07-21T14:57:22;998.50;819.20
66827;DHT22;53727;45.242;19.796;2022-07-21T14:59:48;998.40;844.80
66827;DHT22;53727;45.242;19.796;2022-07-21T15:02:14;998.40;844.80
66827;DHT22;53727;45.242;19.796;2022-07-21T15:04:40;973.60;819.20
66827;DHT22;53727;45.242;19.796;2022-07-21T15:07:06;973.40;819.20
66827;DHT22;53727;45.242;19.796;2022-07-21T15:09:32;973.10;844.80
66827;DHT22;53727;45.242;19.796;2022-07-21T15:11:57;972.90;844.80
66827;DHT22;53727;45.242;19.796;2022-07-21T15:14:23;973.00;844.80
66827;DHT22;53727;45.242;19.796;2022-07-21T15:16:49;972.90;844.80
66827;DHT22;53727;45.242;19.796;2022-07-21T15:19:14;972.90;870.40
66827;DHT22;53727;45.242;19.796;2022-07-21T15:21:40;972.90;844.80
66827;DHT22;53727;45.242;19.796;2022-07-21T15:24:08;972.80;844.80
66827;DHT22;53727;45.242;19.796;2022-07-21T15:26:34;948.10;819.20
66827;DHT22;53727;45.242;19.796;2022-07-21T15:28:59;948.00;819.20
66827;DHT22;53727;45.242;19.796;2022-07-21T15:31:25;948.00;819.20
66827;DHT22;53727;45.242;19.796;2022-07-21T15:33:51;948.10;819.20
66827;DHT22;53727;45.242;19.796;2022-07-21T15:36:19;948.00;819.20
66827;DHT22;53727;45.242;19.796;2022-07-21T15:38:44;947.90;819.20
66827;DHT22;53727;45.242;19.796;2022-07-21T15:41:10;947.80;844.80
66827;DHT22;53727;45.242;19.796;2022-07-21T15:43:36;947.80;819.20
66827;DHT22;53727;45.242;19.796;2022-07-21T15:46:02;947.80;844.80
66827;DHT22;53727;45.242;19.796;2022-07-21T15:48:28;947.80;844.80
66827;DHT22;53727;45.242;19.796;2022-07-21T15:50:53;947.70;819.20
66827;DHT22;53727;45.242;19.796;2022-07-21T15:53:20;947.60;844.80
66827;DHT22;53727;45.242;19.796;2022-07-21T15:55:46;947.60;844.80
66827;DHT22;53727;45.242;19.796;2022-07-21T15:58:11;947.40;844.80
66827;DHT22;53727;45.242;19.796;2022-07-21T16:00:37;947.60;870.40
66827;DHT22;53727;45.242;19.796;2022-07-21T16:03:03;947.30;844.80
66827;DHT22;53727;45.242;19.796;2022-07-21T16:05:29;947.30;844.80
66827;DHT22;53727;45.242;19.796;2022-07-21T16:07:56;947.30;844.80
66827;DHT22;53727;45.242;19.796;2022-07-21T16:10:23;947.30;844.80
66827;DHT22;53727;45.242;19.796;2022-07-21T16:12:49;947.30;844.80
66827;DHT22;53727;45.242;19.796;2022-07-21T16:15:17;947.30;870.40
66827;DHT22;53727;45.242;19.796;2022-07-21T16:17:43;947.30;870.40
66827;DHT22;53727;45.242;19.796;2022-07-21T16:20:10;947.30;870.40
66827;DHT22;53727;45.242;19.796;2022-07-21T16:22:36;947.30;896.00
66827;DHT22;53727;45.242;19.796;2022-07-21T16:25:03;947.20;870.40
66827;DHT22;53727;45.242;19.796;2022-07-21T16:27:29;922.50;870.40
66827;DHT22;53727;45.242;19.796;2022-07-21T16:32:21;947.30;896.00
66827;DHT22;53727;45.242;19.796;2022-07-21T16:34:46;947.20;896.00
66827;DHT22;53727;45.242;19.796;2022-07-21T16:37:12;922.50;896.00
66827;DHT22;53727;45.242;19.796;2022-07-21T16:39:40;922.30;870.40
66827;DHT22;53727;45.242;19.796;2022-07-21T16:42:06;922.20;870.40
66827;DHT22;53727;45.242;19.796;2022-07-21T16:44:33;922.20;870.40
66827;DHT22;53727;45.242;19.796;2022-07-21T16:46:59;922.20;870.40
66827;DHT22;53727;45.242;19.796;2022-07-21T16:49:25;922.10;870.40
66827;DHT22;53727;45.242;19.796;2022-07-21T16:51:51;922.20;870.40